Time;durP1;ratioP1;P1;durP2;ratioP2;P2;SDS_P1;SDS_P2;PMS_P1;PMS_P2;Temp;Humidity;BMP_temperature;BMP_pressure;BME280_temperature;BME280_humidity;BME280_pressure;Samples;Min_cycle;Max_cycle;Signal;HPM_P1;HPM_P2
2024/03/04 00:00:48;;;;;;;21.40;10.05;;;;;;;-145.63;100.00;61273.97;5012378;28;20113;-65
2024/03/04 00:03:15;;;;;;;25.77;9.43;;;;;;;-145.63;100.00;61273.97;5012786;28;20034;-64
2024/03/04 00:05:41;;;;;;;17.77;9.15;;;;;;;-145.63;100.00;61273.97;5011590;28;20034;-63
2024/03/04 00:08:07;;;;;;;23.58;9.50;;;;;;;-145.63;100.00;61273.97;5012673;28;20037;-64
2024/03/04 00:10:33;;;;;;;16.55;8.70;;;;;;;-145.63;100.00;61273.97;5011833;28;20088;-64
2024/03/04 00:12:59;;;;;;;22.10;9.88;;;;;;;-145.63;100.00;61273.97;5012593;28;20030;-65
2024/03/04 00:15:24;;;;;;;16.25;8.65;;;;;;;-145.63;100.00;61273.97;4994089;28;20026;-63
2024/03/04 00:17:53;;;;;;;13.25;9.10;;;;;;;-145.63;100.00;61273.97;5012504;28;20030;-64
2024/03/04 00:20:19;;;;;;;15.43;8.63;;;;;;;-145.63;100.00;61273.97;5003481;28;20448;-64
2024/03/04 00:22:47;;;;;;;19.95;9.80;;;;;;;-145.63;100.00;61273.97;5018821;28;20048;-64
2024/03/04 00:25:15;;;;;;;17.70;9.20;;;;;;;-145.63;100.00;61273.97;5029814;28;20069;-64
2024/03/04 00:27:43;;;;;;;20.60;9.85;;;;;;;-145.63;100.00;61273.97;5012736;28;20029;-64
2024/03/04 00:30:09;;;;;;;15.07;8.85;;;;;;;-145.63;100.00;61273.97;5012214;28;20479;-65
2024/03/04 00:32:34;;;;;;;18.02;8.35;;;;;;;-145.63;100.00;61273.97;5012542;28;20050;-64
2024/03/04 00:35:00;;;;;;;13.95;8.65;;;;;;;-145.63;100.00;61273.97;5004184;28;20042;-63
2024/03/04 00:37:26;;;;;;;19.73;9.07;;;;;;;-145.63;100.00;61273.97;5010189;28;20077;-63
2024/03/04 00:39:51;;;;;;;18.85;9.68;;;;;;;-145.63;100.00;61273.97;5013080;28;20065;-64
2024/03/04 00:42:17;;;;;;;17.52;8.30;;;;;;;-145.63;100.00;61273.97;5015811;28;20348;-65
2024/03/04 00:44:43;;;;;;;19.10;9.05;;;;;;;-145.63;100.00;61273.97;5015746;28;20444;-64
2024/03/04 00:47:09;;;;;;;18.80;9.27;;;;;;;-145.63;100.00;61273.97;4994962;28;20376;-65
2024/03/04 00:49:35;;;;;;;18.23;8.55;;;;;;;-145.63;100.00;61273.97;5016265;28;20034;-65
2024/03/04 00:52:01;;;;;;;22.35;9.75;;;;;;;-145.63;100.00;61273.97;5015881;28;20058;-65
2024/03/04 00:54:27;;;;;;;17.58;8.73;;;;;;;-145.63;100.00;61273.97;4996428;28;20054;-65
2024/03/04 00:56:55;;;;;;;20.95;10.25;;;;;;;-145.63;100.00;61273.97;5009730;28;20065;-64
2024/03/04 00:59:23;;;;;;;18.98;9.57;;;;;;;-145.63;100.00;61273.97;5015997;28;20452;-63
2024/03/04 01:01:50;;;;;;;26.95;10.43;;;;;;;-145.63;100.00;61273.97;5015630;28;20109;-64
2024/03/04 01:04:16;;;;;;;20.77;9.88;;;;;;;-145.63;100.00;61273.97;5015963;28;20038;-64
2024/03/04 01:06:41;;;;;;;16.20;9.63;;;;;;;-145.63;100.00;61273.97;5015469;28;20034;-65
2024/03/04 01:09:10;;;;;;;17.25;9.75;;;;;;;-145.63;100.00;61273.97;5015617;28;20053;-63
2024/03/04 01:11:36;;;;;;;19.92;10.38;;;;;;;-145.63;100.00;61273.97;5015009;28;20029;-64
2024/03/04 01:14:02;;;;;;;19.42;9.85;;;;;;;-145.63;100.00;61273.97;5015575;28;20438;-65
2024/03/04 01:16:28;;;;;;;22.02;9.80;;;;;;;-145.63;100.00;61273.97;5014141;28;20036;-63
2024/03/04 01:18:55;;;;;;;17.80;9.63;;;;;;;-145.63;100.00;61273.97;5014405;28;20033;-64
2024/03/04 01:21:21;;;;;;;18.95;9.85;;;;;;;-145.63;100.00;61273.97;5015043;28;20122;-64
2024/03/04 01:23:46;;;;;;;18.10;10.57;;;;;;;-145.63;100.00;61273.97;5015076;28;20025;-65
2024/03/04 01:26:14;;;;;;;20.42;10.25;;;;;;;-145.63;100.00;61273.97;5016002;28;20034;-64
2024/03/04 01:28:40;;;;;;;21.38;10.65;;;;;;;-145.63;100.00;61273.97;5016258;28;20056;-64
2024/03/04 01:31:07;;;;;;;20.30;9.52;;;;;;;-145.63;100.00;61273.97;5016684;28;20487;-64
2024/03/04 01:33:33;;;;;;;23.25;11.00;;;;;;;-145.63;100.00;61273.97;5016245;28;20042;-63
2024/03/04 01:36:00;;;;;;;24.48;11.13;;;;;;;-145.63;100.00;61273.97;5014991;28;20428;-65
2024/03/04 01:38:27;;;;;;;21.65;10.90;;;;;;;-145.63;100.00;61273.97;5014629;28;20137;-64
2024/03/04 01:40:52;;;;;;;17.98;11.00;;;;;;;-145.63;100.00;61273.97;5015350;28;20034;-65
2024/03/04 01:43:18;;;;;;;21.85;11.00;;;;;;;-145.63;100.00;61273.97;5014910;28;20105;-64
2024/03/04 01:45:44;;;;;;;18.75;10.48;;;;;;;-145.63;100.00;61273.97;5014721;28;20034;-64
2024/03/04 01:48:10;;;;;;;17.83;10.80;;;;;;;-145.63;100.00;61273.97;5027624;28;20029;-65
2024/03/04 01:50:40;;;;;;;23.77;11.88;;;;;;;-145.63;100.00;61273.97;5014276;28;20084;-64
2024/03/04 01:53:06;;;;;;;23.88;11.95;;;;;;;-145.63;100.00;61273.97;5013392;28;20451;-66
2024/03/04 01:55:39;;;;;;;19.08;11.15;;;;;;;-145.63;100.00;61273.97;5014384;28;20041;-65
2024/03/04 01:58:06;;;;;;;22.98;11.82;;;;;;;-145.63;100.00;61273.97;5013702;28;20036;-64
2024/03/04 02:00:39;;;;;;;20.42;12.27;;;;;;;-145.63;100.00;61273.97;5014494;28;20030;-65
2024/03/04 02:03:06;;;;;;;23.55;13.02;;;;;;;-145.63;100.00;61273.97;4994952;28;20041;-65
2024/03/04 02:05:33;;;;;;;19.05;12.02;;;;;;;-145.63;100.00;61273.97;5013820;28;20030;-65
2024/03/04 02:07:59;;;;;;;19.17;12.43;;;;;;;-145.63;100.00;61273.97;5014309;28;20046;-64
2024/03/04 02:10:26;;;;;;;23.83;11.90;;;;;;;-145.63;100.00;61273.97;5013879;28;20049;-63
2024/03/04 02:12:53;;;;;;;25.75;13.38;;;;;;;-145.63;100.00;61273.97;5014424;28;20467;-63
2024/03/04 02:15:18;;;;;;;19.48;12.50;;;;;;;-145.63;100.00;61273.97;5014151;28;20053;-64
2024/03/04 02:17:45;;;;;;;23.05;13.43;;;;;;;-145.63;100.00;61273.97;5014261;28;20070;-64
2024/03/04 02:20:15;;;;;;;19.27;12.18;;;;;;;-145.63;100.00;61273.97;5011392;28;20456;-64
2024/03/04 02:22:41;;;;;;;21.35;12.60;;;;;;;-145.63;100.00;61273.97;5014399;28;20033;-64
2024/03/04 02:25:11;;;;;;;20.00;12.23;;;;;;;-145.63;100.00;61273.97;5013941;28;20029;-64
2024/03/04 02:27:42;;;;;;;22.52;12.88;;;;;;;-145.63;100.00;61273.97;4994758;28;20030;-64
2024/03/04 02:30:08;;;;;;;22.02;13.10;;;;;;;-145.63;100.00;61273.97;5010664;28;20030;-64
2024/03/04 02:32:35;;;;;;;22.42;13.80;;;;;;;-145.63;100.00;61273.97;5014024;28;20164;-64
2024/03/04 02:35:05;;;;;;;21.83;13.48;;;;;;;-145.63;100.00;61273.97;5020665;28;20124;-64
2024/03/04 02:37:32;;;;;;;25.95;14.48;;;;;;;-145.63;100.00;61273.97;5014369;28;20026;-64
2024/03/04 02:40:00;;;;;;;21.55;13.10;;;;;;;-145.63;100.00;61273.97;5013330;28;20132;-63
2024/03/04 02:42:26;;;;;;;24.92;13.27;;;;;;;-145.63;100.00;61273.97;5014103;28;20029;-64
2024/03/04 02:44:51;;;;;;;25.83;14.07;;;;;;;-145.63;100.00;61273.97;5004664;28;20368;-63
2024/03/04 02:47:17;;;;;;;24.00;13.75;;;;;;;-145.63;100.00;61273.97;5013830;28;20037;-63
2024/03/04 02:49:43;;;;;;;23.08;13.60;;;;;;;-145.63;100.00;61273.97;5012117;28;20045;-65
2024/03/04 02:52:09;;;;;;;23.73;13.68;;;;;;;-145.63;100.00;61273.97;5013669;28;20030;-64
2024/03/04 02:54:35;;;;;;;21.88;12.77;;;;;;;-145.63;100.00;61273.97;5013408;28;20567;-64
2024/03/04 02:57:01;;;;;;;23.95;12.90;;;;;;;-145.63;100.00;61273.97;5012384;28;20494;-64
2024/03/04 02:59:26;;;;;;;22.08;13.20;;;;;;;-145.63;100.00;61273.97;5013426;28;20037;-64
2024/03/04 03:01:53;;;;;;;25.98;13.35;;;;;;;-145.63;100.00;61273.97;5012155;28;20033;-65
2024/03/04 03:04:18;;;;;;;23.60;12.57;;;;;;;-145.63;100.00;61273.97;5012289;28;20041;-66
2024/03/04 03:06:44;;;;;;;19.92;12.65;;;;;;;-145.63;100.00;61273.97;5009139;28;20415;-63
2024/03/04 03:09:11;;;;;;;24.35;12.50;;;;;;;-145.63;100.00;61273.97;5013176;28;20140;-64
2024/03/04 03:11:39;;;;;;;22.58;12.25;;;;;;;-145.63;100.00;61273.97;5013212;28;20048;-64
2024/03/04 03:14:05;;;;;;;18.80;11.43;;;;;;;-145.63;100.00;61273.97;5005975;28;20088;-64
2024/03/04 03:16:31;;;;;;;24.27;11.65;;;;;;;-145.63;100.00;61273.97;5005962;28;20034;-64
2024/03/04 03:18:56;;;;;;;18.73;11.30;;;;;;;-145.63;100.00;61273.97;5013552;28;20088;-64
2024/03/04 03:21:23;;;;;;;19.00;12.07;;;;;;;-145.63;100.00;61273.97;5005905;28;20025;-66
2024/03/04 03:23:51;;;;;;;21.85;11.43;;;;;;;-145.63;100.00;61273.97;5013444;28;20439;-64
2024/03/04 03:26:17;;;;;;;19.15;10.95;;;;;;;-145.63;100.00;61273.97;5011519;28;20032;-64
2024/03/04 03:28:44;;;;;;;21.88;11.77;;;;;;;-145.63;100.00;61273.97;5013532;28;20041;-65
2024/03/04 03:31:10;;;;;;;17.00;11.20;;;;;;;-145.63;100.00;61273.97;5012645;28;20462;-63
2024/03/04 03:33:37;;;;;;;21.15;11.00;;;;;;;-145.63;100.00;61273.97;5013306;28;20081;-65
2024/03/04 03:36:04;;;;;;;20.85;11.13;;;;;;;-145.63;100.00;61273.97;5008154;28;20101;-64
2024/03/04 03:38:34;;;;;;;16.45;10.90;;;;;;;-145.63;100.00;61273.97;5013326;28;20081;-64
2024/03/04 03:41:03;;;;;;;25.60;11.52;;;;;;;-145.63;100.00;61273.97;5011786;28;20038;-64
2024/03/04 03:43:29;;;;;;;21.10;11.77;;;;;;;-145.63;100.00;61273.97;5015192;28;20034;-64
2024/03/04 03:45:54;;;;;;;22.02;11.40;;;;;;;-145.63;100.00;61273.97;5020601;28;20526;-66
2024/03/04 03:48:20;;;;;;;19.88;10.65;;;;;;;-145.63;100.00;61273.97;5012832;28;20121;-63
2024/03/04 03:50:47;;;;;;;19.02;10.93;;;;;;;-145.63;100.00;61273.97;5005095;28;20092;-63
2024/03/04 03:53:13;;;;;;;19.92;10.63;;;;;;;-145.63;100.00;61273.97;5020437;28;20112;-64
2024/03/04 03:55:40;;;;;;;20.92;10.70;;;;;;;-145.63;100.00;61273.97;5028222;28;20034;-63
2024/03/04 03:58:07;;;;;;;24.30;11.98;;;;;;;-145.63;100.00;61273.97;5012911;28;20049;-64
2024/03/04 04:00:33;;;;;;;20.05;11.27;;;;;;;-145.63;100.00;61273.97;5012904;28;20049;-63
2024/03/04 04:02:59;;;;;;;24.25;10.68;;;;;;;-145.63;100.00;61273.97;5010413;28;20026;-63
2024/03/04 04:05:26;;;;;;;21.52;11.02;;;;;;;-145.63;100.00;61273.97;5013137;28;20034;-63
2024/03/04 04:07:51;;;;;;;20.95;11.88;;;;;;;-145.63;100.00;61273.97;5012570;28;20026;-63
2024/03/04 04:10:17;;;;;;;24.98;11.80;;;;;;;-145.63;100.00;61273.97;4994977;28;20133;-63
2024/03/04 04:12:43;;;;;;;19.10;11.27;;;;;;;-145.63;100.00;61273.97;5004851;28;20030;-63
2024/03/04 04:15:09;;;;;;;22.35;11.02;;;;;;;-145.63;100.00;61273.97;5008361;28;20482;-65
2024/03/04 04:17:35;;;;;;;26.58;12.23;;;;;;;-145.63;100.00;61273.97;5016562;28;20080;-64
2024/03/04 04:20:01;;;;;;;21.25;11.98;;;;;;;-145.63;100.00;61273.97;5016457;28;20432;-64
2024/03/04 04:22:29;;;;;;;19.02;10.68;;;;;;;-145.63;100.00;61273.97;5015530;28;20103;-63
2024/03/04 04:24:55;;;;;;;19.23;11.43;;;;;;;-145.63;100.00;61273.97;5016489;28;20025;-64
2024/03/04 04:27:22;;;;;;;18.77;11.95;;;;;;;-145.63;100.00;61273.97;5016100;28;20061;-63
2024/03/04 04:29:49;;;;;;;24.58;11.60;;;;;;;-145.63;100.00;61273.97;5016034;28;20036;-63
2024/03/04 04:32:15;;;;;;;23.58;12.43;;;;;;;-145.63;100.00;61273.97;5015893;28;20049;-64
2024/03/04 04:34:41;;;;;;;18.42;10.93;;;;;;;-145.63;100.00;61273.97;5015774;28;20048;-63
2024/03/04 04:37:07;;;;;;;19.23;10.45;;;;;;;-145.63;100.00;61273.97;5015542;28;20046;-63
2024/03/04 04:39:33;;;;;;;20.60;12.13;;;;;;;-145.63;100.00;61273.97;5015987;28;20037;-61
2024/03/04 04:41:59;;;;;;;16.60;10.43;;;;;;;-145.63;100.00;61273.97;5016053;28;20045;-65
2024/03/04 04:44:24;;;;;;;20.70;11.73;;;;;;;-145.63;100.00;61273.97;5015422;28;20033;-64
2024/03/04 04:46:50;;;;;;;17.90;11.60;;;;;;;-145.63;100.00;61273.97;5016224;28;20037;-63
2024/03/04 04:49:16;;;;;;;19.27;11.32;;;;;;;-145.63;100.00;61273.97;5016043;28;20771;-65
2024/03/04 04:51:41;;;;;;;22.75;11.95;;;;;;;-145.63;100.00;61273.97;5015469;28;20048;-64
2024/03/04 04:54:07;;;;;;;23.00;11.65;;;;;;;-145.63;100.00;61273.97;5014826;28;20045;-63
2024/03/04 04:56:33;;;;;;;22.05;11.82;;;;;;;-145.63;100.00;61273.97;5015650;28;20034;-63
2024/03/04 04:58:58;;;;;;;25.02;11.77;;;;;;;-145.63;100.00;61273.97;5010150;28;20049;-64
2024/03/04 05:01:28;;;;;;;22.38;11.27;;;;;;;-145.63;100.00;61273.97;5008898;28;20054;-63
2024/03/04 05:03:54;;;;;;;22.17;10.77;;;;;;;-145.63;100.00;61273.97;5015174;28;20383;-64
2024/03/04 05:06:21;;;;;;;18.95;10.07;;;;;;;-145.63;100.00;61273.97;5022346;28;20113;-65
2024/03/04 05:08:47;;;;;;;23.98;11.70;;;;;;;-145.63;100.00;61273.97;5014799;28;20030;-64
2024/03/04 05:11:13;;;;;;;16.67;10.52;;;;;;;-145.63;100.00;61273.97;5015432;28;20128;-64
2024/03/04 05:13:39;;;;;;;18.58;10.65;;;;;;;-145.63;100.00;61273.97;5010384;28;20125;-66
2024/03/04 05:16:05;;;;;;;18.60;10.73;;;;;;;-145.63;100.00;61273.97;5004639;28;20022;-65
2024/03/04 05:18:31;;;;;;;18.00;10.57;;;;;;;-145.63;100.00;61273.97;5011439;28;20036;-63
2024/03/04 05:20:57;;;;;;;20.33;10.18;;;;;;;-145.63;100.00;61273.97;5010820;28;20030;-64
2024/03/04 05:23:23;;;;;;;22.88;11.18;;;;;;;-145.63;100.00;61273.97;5013418;28;20030;-64
2024/03/04 05:25:49;;;;;;;20.80;11.13;;;;;;;-145.63;100.00;61273.97;5013833;28;20515;-64
2024/03/04 05:28:14;;;;;;;19.83;10.70;;;;;;;-145.63;100.00;61273.97;5015293;28;20120;-65
2024/03/04 05:30:41;;;;;;;19.15;10.35;;;;;;;-145.63;100.00;61273.97;5012304;28;20041;-63
2024/03/04 05:33:10;;;;;;;16.77;9.80;;;;;;;-145.63;100.00;61273.97;5029574;28;20084;-63
2024/03/04 05:35:36;;;;;;;19.42;10.40;;;;;;;-145.63;100.00;61273.97;5018660;28;20523;-64
2024/03/04 05:38:02;;;;;;;18.80;11.27;;;;;;;-145.63;100.00;61273.97;5015145;28;20114;-63
2024/03/04 05:40:28;;;;;;;22.58;10.35;;;;;;;-145.63;100.00;61273.97;5014954;28;20037;-67
2024/03/04 05:42:54;;;;;;;16.75;10.30;;;;;;;-145.63;100.00;61273.97;5015035;28;20034;-64
2024/03/04 05:45:20;;;;;;;17.80;10.90;;;;;;;-145.63;100.00;61273.97;5016791;28;20087;-64
2024/03/04 05:47:46;;;;;;;17.77;10.45;;;;;;;-145.63;100.00;61273.97;5014595;28;20072;-64
2024/03/04 05:50:14;;;;;;;21.83;10.48;;;;;;;-145.63;100.00;61273.97;5014753;28;20041;-63
2024/03/04 05:52:45;;;;;;;14.18;9.70;;;;;;;-145.63;100.00;61273.97;5014594;28;20463;-63
2024/03/04 05:55:12;;;;;;;17.58;10.40;;;;;;;-145.63;100.00;61273.97;5014228;28;20103;-63
2024/03/04 05:57:38;;;;;;;18.02;10.48;;;;;;;-145.63;100.00;61273.97;5014905;28;20363;-64
2024/03/04 06:00:12;;;;;;;24.00;11.32;;;;;;;-145.63;100.00;61273.97;5014700;28;20038;-64
2024/03/04 06:02:39;;;;;;;18.13;10.02;;;;;;;-145.63;100.00;61273.97;5014386;28;20025;-64
2024/03/04 06:05:06;;;;;;;15.05;9.98;;;;;;;-145.63;100.00;61273.97;5012048;28;20060;-64
2024/03/04 06:07:31;;;;;;;16.55;10.15;;;;;;;-145.63;100.00;61273.97;5014271;28;20515;-65
2024/03/04 06:09:57;;;;;;;18.65;10.32;;;;;;;-145.63;100.00;61273.97;5014950;28;20129;-65
2024/03/04 06:12:22;;;;;;;17.70;11.00;;;;;;;-145.63;100.00;61273.97;5014314;28;20598;-65
2024/03/04 06:14:48;;;;;;;14.52;10.45;;;;;;;-145.63;100.00;61273.97;5003774;28;20035;-64
2024/03/04 06:17:14;;;;;;;18.23;10.45;;;;;;;-145.63;100.00;61273.97;5021136;28;20120;-64
2024/03/04 06:19:40;;;;;;;23.70;11.50;;;;;;;-145.63;100.00;61273.97;5032399;28;20057;-64
2024/03/04 06:22:05;;;;;;;18.60;10.45;;;;;;;-145.63;100.00;61273.97;5014368;28;20026;-64
2024/03/04 06:24:34;;;;;;;16.90;10.85;;;;;;;-145.63;100.00;61273.97;5014627;28;20030;-65
2024/03/04 06:27:03;;;;;;;14.77;9.63;;;;;;;-145.63;100.00;61273.97;5012649;28;20188;-64
2024/03/04 06:29:35;;;;;;;19.58;11.57;;;;;;;-145.63;100.00;61273.97;5005705;28;20092;-65
2024/03/04 06:32:02;;;;;;;18.73;11.13;;;;;;;-145.63;100.00;61273.97;5009316;28;20041;-64
2024/03/04 06:34:29;;;;;;;17.60;11.73;;;;;;;-145.63;100.00;61273.97;5013410;28;20399;-63
2024/03/04 06:36:55;;;;;;;23.45;11.20;;;;;;;-145.63;100.00;61273.97;5008268;28;20063;-66
2024/03/04 06:39:21;;;;;;;25.67;12.75;;;;;;;-145.63;100.00;61273.97;5011724;28;20029;-65
2024/03/04 06:41:48;;;;;;;19.73;11.93;;;;;;;-145.63;100.00;61273.97;5013979;28;20034;-65
2024/03/04 06:44:14;;;;;;;15.55;11.23;;;;;;;-145.63;100.00;61273.97;5014294;28;20113;-63
2024/03/04 06:46:40;;;;;;;21.65;11.05;;;;;;;-145.63;100.00;61273.97;5012707;28;20613;-65
2024/03/04 06:49:05;;;;;;;21.85;11.10;;;;;;;-145.63;100.00;61273.97;5013702;28;20527;-65
2024/03/04 06:51:35;;;;;;;22.20;12.18;;;;;;;-145.63;100.00;61273.97;5013426;28;20034;-64
2024/03/04 06:54:09;;;;;;;19.55;10.88;;;;;;;-145.63;100.00;61273.97;5013716;28;20030;-64
2024/03/04 06:56:36;;;;;;;22.33;10.70;;;;;;;-145.63;100.00;61273.97;5016671;28;20348;-64
2024/03/04 06:59:02;;;;;;;19.10;10.55;;;;;;;-145.63;100.00;61273.97;5013463;28;20475;-64
2024/03/04 07:01:29;;;;;;;18.70;11.07;;;;;;;-145.63;100.00;61273.97;5011770;28;20545;-64
2024/03/04 07:03:55;;;;;;;19.38;11.30;;;;;;;-145.63;100.00;61273.97;5012430;28;20120;-65
2024/03/04 07:06:25;;;;;;;18.75;10.48;;;;;;;-145.63;100.00;61273.97;5011090;28;20372;-63
2024/03/04 07:08:51;;;;;;;15.80;10.93;;;;;;;-145.63;100.00;61273.97;5013676;28;20108;-63
2024/03/04 07:11:17;;;;;;;22.70;11.60;;;;;;;-145.63;100.00;61273.97;5013272;28;20111;-63
2024/03/04 07:13:43;;;;;;;24.05;10.95;;;;;;;-145.63;100.00;61273.97;5013604;28;20088;-64
2024/03/04 07:16:14;;;;;;;32.47;15.45;;;;;;;-145.63;100.00;61273.97;5012936;28;20034;-64
2024/03/04 07:18:40;;;;;;;17.43;10.27;;;;;;;-145.63;100.00;61273.97;5006526;28;20038;-64
2024/03/04 07:21:06;;;;;;;19.65;10.63;;;;;;;-145.63;100.00;61273.97;5005394;28;20091;-64
2024/03/04 07:23:32;;;;;;;19.02;10.15;;;;;;;-145.63;100.00;61273.97;5004678;28;20061;-62
2024/03/04 07:25:57;;;;;;;17.77;10.75;;;;;;;-145.63;100.00;61273.97;5000465;28;20034;-65
2024/03/04 07:28:23;;;;;;;15.23;10.40;;;;;;;-145.63;100.00;61273.97;5013600;28;20049;-65
2024/03/04 07:30:49;;;;;;;19.80;11.20;;;;;;;-145.63;100.00;61273.97;4997605;28;20447;-63
2024/03/04 07:33:15;;;;;;;16.27;10.43;;;;;;;-145.63;100.00;61273.97;5011668;28;20228;-63
2024/03/04 07:35:41;;;;;;;20.15;11.07;;;;;;;-145.63;100.00;61273.97;5003368;28;20116;-64
2024/03/04 07:38:07;;;;;;;20.73;11.13;;;;;;;-145.63;100.00;61273.97;4997702;28;20053;-63
2024/03/04 07:40:33;;;;;;;18.85;10.23;;;;;;;-145.63;100.00;61273.97;5013604;28;20029;-63
2024/03/04 07:43:01;;;;;;;20.98;10.73;;;;;;;-145.63;100.00;61273.97;5013284;28;20030;-63
2024/03/04 07:45:27;;;;;;;16.48;10.88;;;;;;;-145.63;100.00;61273.97;4997176;28;20039;-64
2024/03/04 07:47:53;;;;;;;22.48;11.23;;;;;;;-145.63;100.00;61273.97;4999194;28;20490;-63
2024/03/04 07:50:18;;;;;;;17.88;11.13;;;;;;;-145.63;100.00;61273.97;5004235;28;20065;-66
2024/03/04 07:52:45;;;;;;;21.40;10.80;;;;;;;-145.63;100.00;61273.97;4996408;28;20084;-63
2024/03/04 07:55:12;;;;;;;17.02;10.65;;;;;;;-145.63;100.00;61273.97;4997057;28;20034;-63
2024/03/04 07:57:39;;;;;;;19.77;10.98;;;;;;;-145.63;100.00;61273.97;5034443;28;20036;-64
2024/03/04 08:00:06;;;;;;;23.50;11.43;;;;;;;-145.63;100.00;61273.97;5024807;28;20076;-63
2024/03/04 08:02:31;;;;;;;18.15;9.60;;;;;;;-145.63;100.00;61273.97;5018328;28;20034;-63
2024/03/04 08:04:57;;;;;;;16.80;9.98;;;;;;;-145.63;100.00;61273.97;5008155;28;20041;-63
2024/03/04 08:07:23;;;;;;;23.02;11.55;;;;;;;-145.63;100.00;61273.97;5017091;28;20041;-64
2024/03/04 08:09:48;;;;;;;19.10;9.77;;;;;;;-145.63;100.00;61273.97;5017109;28;20159;-64
2024/03/04 08:12:15;;;;;;;15.93;8.88;;;;;;;-145.63;100.00;61273.97;5017446;28;20041;-63
2024/03/04 08:14:41;;;;;;;14.32;8.07;;;;;;;-145.63;100.00;61273.97;5016748;28;20040;-63
2024/03/04 08:17:08;;;;;;;19.33;8.60;;;;;;;-145.63;100.00;61273.97;5016135;28;20030;-63
2024/03/04 08:19:33;;;;;;;14.98;7.55;;;;;;;-145.63;100.00;61273.97;5016726;28;20037;-64
2024/03/04 08:21:59;;;;;;;16.92;9.00;;;;;;;-145.63;100.00;61273.97;4996935;28;20030;-67
2024/03/04 08:24:25;;;;;;;20.20;9.60;;;;;;;-145.63;100.00;61273.97;5012146;28;20037;-66
2024/03/04 08:26:51;;;;;;;21.00;9.50;;;;;;;-145.63;100.00;61273.97;5005272;28;20050;-63
2024/03/04 08:29:17;;;;;;;15.98;9.25;;;;;;;-145.63;100.00;61273.97;5002692;28;20065;-64
2024/03/04 08:31:43;;;;;;;15.70;8.00;;;;;;;-145.63;100.00;61273.97;5016234;28;20053;-64
2024/03/04 08:34:08;;;;;;;15.05;7.45;;;;;;;-145.63;100.00;61273.97;5016700;28;20053;-63
2024/03/04 08:36:34;;;;;;;18.48;7.70;;;;;;;-145.63;100.00;61273.97;5015843;28;20038;-66
2024/03/04 08:39:00;;;;;;;15.85;8.35;;;;;;;-145.63;100.00;61273.97;5004397;28;20104;-63
2024/03/04 08:41:25;;;;;;;16.27;8.13;;;;;;;-145.63;100.00;61273.97;5006939;28;20026;-65
2024/03/04 08:43:51;;;;;;;16.90;8.10;;;;;;;-145.63;100.00;61273.97;5013618;28;20030;-64
2024/03/04 08:46:17;;;;;;;15.75;8.93;;;;;;;-145.63;100.00;61273.97;5005590;28;20053;-64
2024/03/04 08:48:43;;;;;;;16.35;9.02;;;;;;;-145.63;100.00;61273.97;5016167;28;20049;-66
2024/03/04 08:51:10;;;;;;;17.02;9.55;;;;;;;-145.63;100.00;61273.97;5015297;28;20030;-64
2024/03/04 08:53:36;;;;;;;16.73;9.82;;;;;;;-145.63;100.00;61273.97;5006311;28;20057;-67
2024/03/04 08:56:04;;;;;;;19.63;11.15;;;;;;;-145.63;100.00;61273.97;5003744;28;20068;-65
2024/03/04 08:58:31;;;;;;;19.38;10.85;;;;;;;-145.63;100.00;61273.97;5016129;28;20038;-67
2024/03/04 09:00:57;;;;;;;20.05;10.65;;;;;;;-145.63;100.00;61273.97;4998281;28;20505;-63
2024/03/04 09:03:22;;;;;;;16.52;10.75;;;;;;;-145.63;100.00;61273.97;5001572;28;20090;-64
2024/03/04 09:05:48;;;;;;;20.25;10.00;;;;;;;-145.63;100.00;61273.97;5005859;28;20034;-64
2024/03/04 09:08:15;;;;;;;18.25;10.75;;;;;;;-145.63;100.00;61273.97;5001408;28;20034;-63
2024/03/04 09:10:41;;;;;;;15.52;9.95;;;;;;;-145.63;100.00;61273.97;5016049;28;20117;-63
2024/03/04 09:13:07;;;;;;;17.92;10.30;;;;;;;-145.63;100.00;61273.97;5015311;28;20126;-62
2024/03/04 09:15:33;;;;;;;17.70;10.23;;;;;;;-145.63;100.00;61273.97;5015995;28;20033;-63
2024/03/04 09:17:59;;;;;;;15.73;10.57;;;;;;;-145.63;100.00;61273.97;5003593;28;20030;-62
2024/03/04 09:20:25;;;;;;;19.60;10.68;;;;;;;-145.63;100.00;61273.97;5002036;28;20057;-63
2024/03/04 09:22:50;;;;;;;20.27;10.88;;;;;;;-145.63;100.00;61273.97;5012623;28;20030;-62
2024/03/04 09:25:16;;;;;;;17.63;10.60;;;;;;;-145.63;100.00;61273.97;4995831;28;20042;-64
2024/03/04 09:27:43;;;;;;;22.83;10.95;;;;;;;-145.63;100.00;61273.97;5015699;28;20041;-63
2024/03/04 09:30:09;;;;;;;18.90;10.85;;;;;;;-145.63;100.00;61273.97;5001398;28;20379;-64
2024/03/04 09:32:35;;;;;;;17.50;10.40;;;;;;;-145.63;100.00;61273.97;5013041;28;20042;-64
2024/03/04 09:35:03;;;;;;;21.30;10.10;;;;;;;-145.63;100.00;61273.97;5010988;28;20061;-63
2024/03/04 09:37:29;;;;;;;20.60;10.38;;;;;;;-145.63;100.00;61273.97;4999030;28;20057;-64
2024/03/04 09:39:55;;;;;;;13.98;9.60;;;;;;;-145.63;100.00;61273.97;5010195;28;20057;-63
2024/03/04 09:42:28;;;;;;;17.58;10.02;;;;;;;-145.63;100.00;61273.97;5014709;28;20092;-64
2024/03/04 09:44:53;;;;;;;16.92;9.60;;;;;;;-145.63;100.00;61273.97;5014639;28;20427;-63
2024/03/04 09:47:20;;;;;;;16.95;9.77;;;;;;;-145.63;100.00;61273.97;5014559;28;20030;-64
2024/03/04 09:49:46;;;;;;;20.00;9.00;;;;;;;-145.63;100.00;61273.97;5014792;28;20033;-63
2024/03/04 09:52:12;;;;;;;14.70;9.55;;;;;;;-145.63;100.00;61273.97;5014690;28;20941;-66
2024/03/04 09:54:39;;;;;;;16.20;9.65;;;;;;;-145.63;100.00;61273.97;4998404;28;20026;-64
2024/03/04 09:57:05;;;;;;;19.75;9.68;;;;;;;-145.63;100.00;61273.97;5009924;28;20361;-63
2024/03/04 09:59:32;;;;;;;18.08;10.10;;;;;;;-145.63;100.00;61273.97;5007733;28;20053;-63
2024/03/04 10:02:01;;;;;;;16.00;9.07;;;;;;;-145.63;100.00;61273.97;5005662;28;20037;-63
2024/03/04 10:04:30;;;;;;;17.83;10.02;;;;;;;-145.63;100.00;61273.97;5014309;28;20034;-64
2024/03/04 10:06:56;;;;;;;15.10;10.35;;;;;;;-145.63;100.00;61273.97;4995536;28;20027;-63
2024/03/04 10:09:22;;;;;;;19.73;9.35;;;;;;;-145.63;100.00;61273.97;5008383;28;20168;-63
2024/03/04 10:11:48;;;;;;;13.70;9.20;;;;;;;-145.63;100.00;61273.97;5004375;28;20026;-63
2024/03/04 10:14:13;;;;;;;18.25;10.02;;;;;;;-145.63;100.00;61273.97;4998941;28;20634;-63
2024/03/04 10:16:39;;;;;;;15.73;9.98;;;;;;;-145.63;100.00;61273.97;5013932;28;20034;-64
2024/03/04 10:19:05;;;;;;;15.13;9.65;;;;;;;-145.63;100.00;61273.97;4994918;28;20062;-64
2024/03/04 10:21:32;;;;;;;20.05;11.30;;;;;;;-145.63;100.00;61273.97;5013830;28;20424;-63
2024/03/04 10:24:06;;;;;;;16.52;10.15;;;;;;;-145.63;100.00;61273.97;5014041;28;20075;-63
2024/03/04 10:26:46;;;;;;;15.85;10.52;;;;;;;-145.63;100.00;61273.97;5007406;28;20065;-64
2024/03/04 10:29:15;;;;;;;16.08;10.05;;;;;;;-145.63;100.00;61273.97;4998708;28;20042;-64
2024/03/04 10:31:51;;;;;;;19.77;12.00;;;;;;;-145.63;100.00;61273.97;5014085;28;20034;-63
2024/03/04 10:34:18;;;;;;;17.42;9.75;;;;;;;-145.63;100.00;61273.97;5013400;28;20171;-64
2024/03/04 10:36:56;;;;;;;18.05;10.13;;;;;;;-145.63;100.00;61273.97;5014009;28;20159;-63
2024/03/04 10:39:23;;;;;;;16.42;10.18;;;;;;;-145.63;100.00;61273.97;5027275;28;20052;-63
2024/03/04 10:41:50;;;;;;;17.88;10.80;;;;;;;-145.63;100.00;61273.97;5024198;28;20438;-63
2024/03/04 10:44:26;;;;;;;16.50;11.05;;;;;;;-145.63;100.00;61273.97;5008640;28;20038;-63
2024/03/04 10:46:56;;;;;;;16.02;10.63;;;;;;;-145.63;100.00;61273.97;4994081;28;20030;-64
2024/03/04 10:49:22;;;;;;;16.92;10.93;;;;;;;-145.63;100.00;61273.97;5006349;28;20034;-65
2024/03/04 10:51:48;;;;;;;17.58;11.10;;;;;;;-145.63;100.00;61273.97;5013194;28;20088;-64
2024/03/04 10:54:14;;;;;;;20.33;10.45;;;;;;;-145.63;100.00;61273.97;5013135;28;20061;-63